createdAt,value
2018-09-27T00:00:15.756Z,4.80
2018-09-27T00:02:45.723Z,4.28
2018-09-27T00:05:15.184Z,5.12
2018-09-27T00:07:44.798Z,4.87
2018-09-27T00:10:14.801Z,6.20
2018-09-27T00:12:44.441Z,5.50
2018-09-27T00:15:13.843Z,4.85
2018-09-27T00:17:43.632Z,5.53
2018-09-27T00:20:13.069Z,4.55
2018-09-27T00:22:42.512Z,6.60
2018-09-27T00:25:12.308Z,5.05
2018-09-27T00:27:41.761Z,4.95
2018-09-27T00:30:11.344Z,4.75
2018-09-27T00:32:41.996Z,4.60
2018-09-27T00:35:11.473Z,4.12
2018-09-27T00:37:42.191Z,4.10
2018-09-27T00:40:12.713Z,4.40
2018-09-27T00:42:42.280Z,4.32
2018-09-27T00:45:13.233Z,4.40
2018-09-27T00:47:42.903Z,4.47
2018-09-27T00:50:12.804Z,4.28
2018-09-27T00:52:42.629Z,4.70
2018-09-27T00:55:12.323Z,4.55
2018-09-27T00:57:43.042Z,4.30
2018-09-27T01:00:13.043Z,4.75
2018-09-27T01:02:42.627Z,4.62
2018-09-27T01:05:12.197Z,4.35
2018-09-27T01:07:42.262Z,4.85
2018-09-27T01:10:11.992Z,4.03
2018-09-27T01:12:41.727Z,4.28
2018-09-27T01:15:11.290Z,4.87
2018-09-27T01:17:42.070Z,5.25
2018-09-27T01:20:11.588Z,4.60
2018-09-27T01:22:44.018Z,4.50
2018-09-27T01:25:13.776Z,3.78
2018-09-27T01:27:43.395Z,4.53
2018-09-27T01:30:13.783Z,4.72
2018-09-27T01:32:43.692Z,4.70
2018-09-27T01:35:13.897Z,5.40
2018-09-27T01:37:43.598Z,5.12
2018-09-27T01:40:13.377Z,4.90
2018-09-27T01:42:42.806Z,5.43
2018-09-27T01:45:12.760Z,5.10
2018-09-27T01:47:42.697Z,5.00
2018-09-27T01:50:15.554Z,4.40
2018-09-27T01:52:45.722Z,4.45
2018-09-27T01:55:15.207Z,4.55
2018-09-27T01:57:45.010Z,4.43
2018-09-27T02:00:15.372Z,4.10
2018-09-27T02:02:45.092Z,3.92
2018-09-27T02:05:14.364Z,4.20
2018-09-27T02:07:43.800Z,3.83
2018-09-27T02:10:13.326Z,4.25
2018-09-27T02:12:43.047Z,4.18
2018-09-27T02:15:13.679Z,4.45
2018-09-27T02:17:43.927Z,4.65
2018-09-27T02:20:15.178Z,4.50
2018-09-27T02:22:44.635Z,4.62
2018-09-27T02:25:15.617Z,4.00
2018-09-27T02:27:45.795Z,4.40
2018-09-27T02:30:15.527Z,4.25
2018-09-27T02:32:45.100Z,4.68
2018-09-27T02:35:14.772Z,4.05
2018-09-27T02:37:44.632Z,3.70
2018-09-27T02:40:13.981Z,4.57
2018-09-27T02:42:43.529Z,3.80
2018-09-27T02:45:13.318Z,3.78
2018-09-27T02:47:43.069Z,3.95
2018-09-27T02:50:13.011Z,4.10
2018-09-27T02:52:42.732Z,4.30
2018-09-27T02:55:12.747Z,4.10
2018-09-27T02:57:43.457Z,4.10
2018-09-27T03:00:13.083Z,3.87
2018-09-27T03:02:43.465Z,4.80
2018-09-27T03:05:13.064Z,4.93
2018-09-27T03:07:42.641Z,4.62
2018-09-27T03:10:12.198Z,4.85
2018-09-27T03:12:41.866Z,4.95
2018-09-27T03:15:11.432Z,4.40
2018-09-27T03:17:41.186Z,4.35
2018-09-27T03:20:10.925Z,4.50
2018-09-27T03:22:40.534Z,4.43
2018-09-27T03:25:10.104Z,5.00
2018-09-27T03:27:39.498Z,4.35
2018-09-27T03:30:12.761Z,4.45
2018-09-27T03:32:42.557Z,4.40
2018-09-27T03:35:12.384Z,4.07
2018-09-27T03:37:42.230Z,4.55
2018-09-27T03:40:12.223Z,4.90
2018-09-27T03:42:42.448Z,4.57
2018-09-27T03:45:12.094Z,5.15
2018-09-27T03:47:42.872Z,4.82
2018-09-27T03:50:12.827Z,4.50
2018-09-27T03:52:42.490Z,4.45
2018-09-27T03:55:12.018Z,4.03
2018-09-27T03:57:41.693Z,4.43
2018-09-27T04:00:11.170Z,4.50
2018-09-27T04:02:40.913Z,5.15
2018-09-27T04:05:11.993Z,5.32
2018-09-27T04:07:41.878Z,6.80
2018-09-27T04:10:11.452Z,5.45
2018-09-27T04:12:41.921Z,4.45
2018-09-27T04:15:11.534Z,4.90
2018-09-27T04:17:41.284Z,4.70
2018-09-27T04:20:10.727Z,4.43
2018-09-27T04:22:40.186Z,5.05
2018-09-27T04:25:10.924Z,5.03
2018-09-27T04:27:40.558Z,4.68
2018-09-27T04:30:10.712Z,4.30
2018-09-27T04:32:41.432Z,4.82
2018-09-27T04:35:13.841Z,4.68
2018-09-27T04:37:44.433Z,4.65
2018-09-27T04:40:14.013Z,4.95
2018-09-27T04:42:43.500Z,4.80
2018-09-27T04:45:13.213Z,5.05
2018-09-27T04:47:43.739Z,6.10
2018-09-27T04:50:13.261Z,4.90
2018-09-27T04:52:42.882Z,5.85
2018-09-27T04:55:12.461Z,4.75
2018-09-27T04:57:42.167Z,4.87
2018-09-27T05:00:11.663Z,4.57
2018-09-27T05:02:41.468Z,4.45
2018-09-27T05:05:11.518Z,4.87
2018-09-27T05:07:41.128Z,4.68
2018-09-27T05:10:11.778Z,4.78
2018-09-27T05:12:41.828Z,4.50
2018-09-27T05:15:12.446Z,6.00
2018-09-27T05:17:42.964Z,5.18
2018-09-27T05:20:12.412Z,4.47
2018-09-27T05:22:41.918Z,4.85
2018-09-27T05:25:12.646Z,5.03
2018-09-27T05:27:43.492Z,4.28
2018-09-27T05:30:14.034Z,4.70
2018-09-27T05:32:43.626Z,4.57
2018-09-27T05:35:13.597Z,4.65
2018-09-27T05:37:42.963Z,4.70
2018-09-27T05:40:12.618Z,4.45
2018-09-27T05:42:43.104Z,4.28
2018-09-27T05:45:13.332Z,7.43
2018-09-27T05:47:42.818Z,7.40
2018-09-27T05:50:12.395Z,4.80
2018-09-27T05:52:42.625Z,5.60
2018-09-27T05:55:12.090Z,7.87
2018-09-27T05:57:41.346Z,6.68
2018-09-27T06:00:11.222Z,6.15
2018-09-27T06:02:41.279Z,5.65
2018-09-27T06:05:11.349Z,5.30
2018-09-27T06:07:41.027Z,4.93
2018-09-27T06:10:10.866Z,6.78
2018-09-27T06:12:40.527Z,5.40
2018-09-27T06:15:10.487Z,5.60
2018-09-27T06:17:40.121Z,5.28
2018-09-27T06:20:09.706Z,5.07
2018-09-27T06:22:40.021Z,5.07
2018-09-27T06:25:09.666Z,5.35
2018-09-27T06:27:39.528Z,5.32
2018-09-27T06:30:09.264Z,5.68
2018-09-27T06:32:38.978Z,5.10
2018-09-27T06:35:08.829Z,5.50
2018-09-27T06:37:40.107Z,5.25
2018-09-27T06:40:10.823Z,4.85
2018-09-27T06:42:40.287Z,4.80
2018-09-27T06:45:09.673Z,4.80
2018-09-27T06:47:39.048Z,4.90
2018-09-27T06:50:08.729Z,5.07
2018-09-27T06:52:38.056Z,5.07
2018-09-27T06:55:07.947Z,4.80
2018-09-27T06:57:37.729Z,4.80
2018-09-27T07:00:07.838Z,4.67
2018-09-27T07:02:37.655Z,4.80
2018-09-27T07:05:07.449Z,4.90
2018-09-27T07:07:38.110Z,4.68
2018-09-27T07:10:07.709Z,4.60
2018-09-27T07:12:37.141Z,5.00
2018-09-27T07:15:06.498Z,4.73
2018-09-27T07:17:35.998Z,4.78
2018-09-27T07:20:05.827Z,4.70
2018-09-27T07:22:36.229Z,4.83
2018-09-27T07:25:05.845Z,4.87
2018-09-27T07:27:35.528Z,5.20
2018-09-27T07:30:05.068Z,5.13
2018-09-27T07:32:34.710Z,4.90
2018-09-27T07:35:06.173Z,4.90
2018-09-27T07:37:35.680Z,5.00
2018-09-27T07:40:05.682Z,5.03
2018-09-27T07:42:35.202Z,5.10
2018-09-27T07:45:04.693Z,4.90
2018-09-27T07:47:34.203Z,5.32
2018-09-27T07:50:05.344Z,5.18
2018-09-27T07:52:35.859Z,5.20
2018-09-27T07:55:05.376Z,5.10
2018-09-27T07:57:36.163Z,4.97
2018-09-27T08:00:06.097Z,5.47
2018-09-27T08:02:36.227Z,5.30
2018-09-27T08:05:06.085Z,5.40
2018-09-27T08:07:35.892Z,5.57
2018-09-27T08:10:05.417Z,5.43
2018-09-27T08:12:35.128Z,5.45
2018-09-27T08:15:04.630Z,5.80
2018-09-27T08:17:33.993Z,5.05
2018-09-27T08:20:05.217Z,4.80
2018-09-27T08:22:35.535Z,4.83
2018-09-27T08:25:04.964Z,5.43
2018-09-27T08:27:36.444Z,4.62
2018-09-27T08:30:06.292Z,5.03
2018-09-27T08:32:35.928Z,5.07
2018-09-27T08:35:05.573Z,5.22
2018-09-27T08:37:35.302Z,4.60
2018-09-27T08:40:04.873Z,4.90
2018-09-27T08:42:35.314Z,5.33
2018-09-27T08:45:05.575Z,4.97
2018-09-27T08:47:35.975Z,5.00
2018-09-27T08:50:05.678Z,4.72
2018-09-27T08:52:35.174Z,4.70
2018-09-27T08:55:04.712Z,5.23
2018-09-27T08:57:34.415Z,4.72
2018-09-27T09:00:04.121Z,5.23
2018-09-27T09:02:33.827Z,4.93
2018-09-27T09:05:03.242Z,5.00
2018-09-27T09:07:32.600Z,4.80
2018-09-27T09:10:02.855Z,4.93
2018-09-27T09:12:33.017Z,5.30
2018-09-27T09:15:02.695Z,5.43
2018-09-27T09:17:33.434Z,5.30
2018-09-27T09:20:02.884Z,4.90
2018-09-27T09:22:32.314Z,4.77
2018-09-27T09:25:01.963Z,4.60
2018-09-27T09:27:31.688Z,5.47
2018-09-27T09:30:00.546Z,4.77
2018-09-27T09:32:30.559Z,4.53
2018-09-27T09:35:00.074Z,5.30
2018-09-27T09:37:29.856Z,4.93
2018-09-27T09:39:59.180Z,4.80
2018-09-27T09:42:30.414Z,4.93
2018-09-27T09:44:59.956Z,5.00
2018-09-27T09:47:29.521Z,4.80
2018-09-27T09:50:02.567Z,4.93
2018-09-27T09:52:32.246Z,4.17
2018-09-27T09:55:02.543Z,5.20
2018-09-27T09:57:32.422Z,4.60
2018-09-27T10:00:02.048Z,4.35
2018-09-27T10:02:31.256Z,4.83
2018-09-27T10:05:00.990Z,4.60
2018-09-27T10:07:30.404Z,4.43
2018-09-27T10:10:00.741Z,4.43
2018-09-27T10:12:30.708Z,5.10
2018-09-27T10:15:00.730Z,4.47
2018-09-27T10:17:30.205Z,5.20
2018-09-27T10:19:59.995Z,4.90
2018-09-27T10:22:30.645Z,4.40
2018-09-27T10:25:00.605Z,5.00
2018-09-27T10:27:31.874Z,4.83
2018-09-27T10:30:01.677Z,4.60
2018-09-27T10:32:32.856Z,4.77
2018-09-27T10:35:02.716Z,4.43
2018-09-27T10:37:32.617Z,5.57
2018-09-27T10:40:03.498Z,4.87
2018-09-27T10:42:33.231Z,4.60
2018-09-27T10:45:03.294Z,4.90
2018-09-27T10:47:32.695Z,4.60
2018-09-27T10:50:02.650Z,4.83
2018-09-27T10:52:32.427Z,4.33
2018-09-27T10:55:03.058Z,4.63
2018-09-27T10:57:33.519Z,4.67
2018-09-27T11:00:03.256Z,4.70
2018-09-27T11:02:32.818Z,4.63
2018-09-27T11:05:02.143Z,4.90
2018-09-27T11:07:31.765Z,4.80
2018-09-27T11:10:01.677Z,5.30
2018-09-27T11:12:32.865Z,4.73
2018-09-27T11:15:02.359Z,4.80
2018-09-27T11:17:32.925Z,5.00
2018-09-27T11:20:02.191Z,5.03
2018-09-27T11:22:32.537Z,5.23
2018-09-27T11:25:02.302Z,5.20
2018-09-27T11:27:32.255Z,4.93
2018-09-27T11:32:57.901Z,5.03
2018-09-27T11:35:28.438Z,4.60
2018-09-27T11:37:57.881Z,5.00
2018-09-27T11:40:27.547Z,4.97
2018-09-27T11:42:57.160Z,4.70
2018-09-27T11:45:26.993Z,4.60
2018-09-27T11:47:56.861Z,4.87
2018-09-27T11:50:26.577Z,4.97
2018-09-27T11:52:56.302Z,5.30
2018-09-27T11:55:26.566Z,5.63
2018-09-27T11:57:57.830Z,5.80
2018-09-27T12:00:31.309Z,5.30
2018-09-27T12:03:00.869Z,5.63
2018-09-27T12:05:30.265Z,5.80
2018-09-27T12:08:00.153Z,5.80
2018-09-27T12:10:29.465Z,4.90
2018-09-27T12:12:59.012Z,4.70
2018-09-27T12:15:29.669Z,5.03
2018-09-27T12:18:00.045Z,5.20
2018-09-27T12:20:30.368Z,5.10
2018-09-27T12:23:00.377Z,5.20
2018-09-27T12:25:56.103Z,5.20
2018-09-27T12:28:25.746Z,5.00
2018-09-27T12:30:55.354Z,4.90
2018-09-27T12:33:25.846Z,5.17
2018-09-27T12:35:55.674Z,5.10
2018-09-27T12:38:25.104Z,5.20
2018-09-27T12:40:54.688Z,5.20
2018-09-27T12:43:24.094Z,4.73
2018-09-27T12:45:53.570Z,4.90
2018-09-27T12:48:23.791Z,4.50
2018-09-27T12:50:54.158Z,5.13
2018-09-27T12:53:23.935Z,4.60
2018-09-27T12:55:53.331Z,4.93
2018-09-27T12:58:23.192Z,4.67
2018-09-27T13:00:53.315Z,4.60
2018-09-27T13:03:23.210Z,5.17
2018-09-27T13:05:53.089Z,4.73
2018-09-27T13:08:22.518Z,5.27
2018-09-27T13:10:52.406Z,4.97
2018-09-27T13:13:22.250Z,4.63
2018-09-27T13:15:51.870Z,4.47
2018-09-27T13:18:21.577Z,4.97
2018-09-27T13:20:51.253Z,5.03
2018-09-27T13:23:21.055Z,4.47
2018-09-27T13:25:50.868Z,5.10
2018-09-27T13:28:20.354Z,4.43
2018-09-27T13:30:50.137Z,4.60
2018-09-27T13:33:20.354Z,4.90
2018-09-27T13:35:50.344Z,7.40
2018-09-27T13:38:20.268Z,5.10
2018-09-27T13:40:49.743Z,5.10
2018-09-27T13:43:19.392Z,4.67
2018-09-27T13:45:48.756Z,4.60
2018-09-27T13:48:18.295Z,4.73
2018-09-27T13:50:48.147Z,4.70
2018-09-27T13:53:18.702Z,5.17
2018-09-27T13:55:48.334Z,5.20
2018-09-27T13:58:18.077Z,5.10
2018-09-27T14:00:48.770Z,5.00
2018-09-27T14:03:18.448Z,5.63
2018-09-27T14:05:48.113Z,5.57
2018-09-27T14:08:17.701Z,4.67
2018-09-27T14:10:47.320Z,4.73
2018-09-27T14:13:16.623Z,4.97
2018-09-27T14:15:46.120Z,5.30
2018-09-27T14:18:16.023Z,5.07
2018-09-27T14:20:46.404Z,4.90
2018-09-27T14:23:16.135Z,5.00
2018-09-27T14:25:46.030Z,4.90
2018-09-27T14:28:15.797Z,4.97
2018-09-27T14:30:45.523Z,4.67
2018-09-27T14:33:14.983Z,5.00
2018-09-27T14:35:44.604Z,5.57
2018-09-27T14:38:14.539Z,4.67
2018-09-27T14:40:44.349Z,5.30
2018-09-27T14:43:13.935Z,5.00
2018-09-27T14:45:43.590Z,5.07
2018-09-27T14:48:13.385Z,5.47
2018-09-27T14:50:42.693Z,5.00
2018-09-27T14:53:15.587Z,5.20
2018-09-27T14:55:45.222Z,5.17
2018-09-27T14:58:15.525Z,4.93
2018-09-27T15:00:44.837Z,5.07
2018-09-27T15:03:14.590Z,5.27
2018-09-27T15:05:44.321Z,5.13
2018-09-27T15:08:13.605Z,4.83
2018-09-27T15:10:43.120Z,5.40
2018-09-27T15:13:12.688Z,5.20
2018-09-27T15:15:42.308Z,5.30
2018-09-27T15:18:13.211Z,4.97
2018-09-27T15:20:42.991Z,5.20
2018-09-27T15:23:12.957Z,5.23
2018-09-27T15:25:42.523Z,5.63
2018-09-27T15:28:12.480Z,5.77
2018-09-27T15:30:42.536Z,6.20
2018-09-27T15:33:12.443Z,6.87
2018-09-27T15:35:42.108Z,19.23
2018-09-27T15:38:12.352Z,10.90
2018-09-27T15:40:42.296Z,6.60
2018-09-27T15:43:11.997Z,7.73
2018-09-27T15:45:41.582Z,7.75
2018-09-27T15:48:11.211Z,8.68
2018-09-27T15:50:40.963Z,8.07
2018-09-27T15:53:10.471Z,8.15
2018-09-27T15:55:39.966Z,9.32
2018-09-27T15:58:09.857Z,8.75
2018-09-27T16:00:39.051Z,8.85
2018-09-27T16:03:08.335Z,8.30
2018-09-27T16:05:38.489Z,8.40
2018-09-27T16:08:07.979Z,7.97
2018-09-27T16:10:37.676Z,9.20
2018-09-27T16:13:06.954Z,9.98
2018-09-27T16:15:36.614Z,9.35
2018-09-27T16:18:06.573Z,8.88
2018-09-27T16:20:36.222Z,9.30
2018-09-27T16:23:05.500Z,9.32
2018-09-27T16:25:35.980Z,8.70
2018-09-27T16:28:05.436Z,8.30
2018-09-27T16:30:35.213Z,8.50
2018-09-27T16:33:04.982Z,9.40
2018-09-27T16:35:34.961Z,9.55
2018-09-27T16:38:04.942Z,9.35
2018-09-27T16:40:34.255Z,9.23
2018-09-27T16:43:04.001Z,9.20
2018-09-27T16:45:33.635Z,8.38
2018-09-27T16:48:04.048Z,8.63
2018-09-27T16:50:33.878Z,7.62
2018-09-27T16:53:03.812Z,7.57
2018-09-27T16:55:33.418Z,7.20
2018-09-27T16:58:02.932Z,7.50
2018-09-27T17:00:32.441Z,7.05
2018-09-27T17:03:01.949Z,7.03
2018-09-27T17:05:31.475Z,6.45
2018-09-27T17:08:00.924Z,6.12
2018-09-27T17:10:30.392Z,5.75
2018-09-27T17:13:00.066Z,5.37
2018-09-27T17:15:29.741Z,5.60
2018-09-27T17:17:59.068Z,5.65
2018-09-27T17:20:28.528Z,5.60
2018-09-27T17:22:58.143Z,5.32
2018-09-27T17:25:28.016Z,5.20
2018-09-27T17:27:58.093Z,5.70
2018-09-27T17:30:27.644Z,5.57
2018-09-27T17:32:57.236Z,5.30
2018-09-27T17:35:26.836Z,5.20
2018-09-27T17:37:56.681Z,5.18
2018-09-27T17:40:26.234Z,4.97
2018-09-27T17:42:59.593Z,5.18
2018-09-27T17:45:30.041Z,4.93
2018-09-27T17:47:59.772Z,4.62
2018-09-27T17:50:30.568Z,4.65
2018-09-27T17:53:02.784Z,4.45
2018-09-27T17:55:33.395Z,4.93
2018-09-27T17:58:03.073Z,5.28
2018-09-27T18:00:32.608Z,5.03
2018-09-27T18:03:02.620Z,5.65
2018-09-27T18:05:32.265Z,5.68
2018-09-27T18:08:02.502Z,5.70
2018-09-27T18:10:32.063Z,5.90
2018-09-27T18:13:01.516Z,6.35
2018-09-27T18:15:32.067Z,6.72
2018-09-27T18:18:01.565Z,5.75
2018-09-27T18:20:31.864Z,6.20
2018-09-27T18:23:01.319Z,5.87
2018-09-27T18:25:30.849Z,5.57
2018-09-27T18:28:00.878Z,5.75
2018-09-27T18:30:30.767Z,5.93
2018-09-27T18:33:00.780Z,6.65
2018-09-27T18:35:29.994Z,7.45
2018-09-27T18:37:59.640Z,7.75
2018-09-27T18:40:29.048Z,7.47
2018-09-27T18:42:59.734Z,7.82
2018-09-27T18:45:29.155Z,8.65
2018-09-27T18:47:58.747Z,8.82
2018-09-27T18:50:28.202Z,10.18
2018-09-27T18:52:57.860Z,10.15
2018-09-27T18:55:29.165Z,10.13
2018-09-27T18:57:58.843Z,9.82
2018-09-27T19:00:28.529Z,10.13
2018-09-27T19:02:58.169Z,10.60
2018-09-27T19:05:27.696Z,11.05
2018-09-27T19:07:57.401Z,9.65
2018-09-27T19:10:28.145Z,10.80
2018-09-27T19:12:58.413Z,10.88
2018-09-27T19:15:28.252Z,10.75
2018-09-27T19:17:58.220Z,12.15
2018-09-27T19:20:28.953Z,10.73
2018-09-27T19:22:58.656Z,11.88
2018-09-27T19:25:28.720Z,12.48
2018-09-27T19:27:58.318Z,12.95
2018-09-27T19:30:28.588Z,13.15
2018-09-27T19:33:00.025Z,13.40
2018-09-27T19:35:29.479Z,14.43
2018-09-27T19:37:59.065Z,11.52
2018-09-27T19:40:28.981Z,12.48
2018-09-27T19:42:58.593Z,12.75
2018-09-27T19:45:28.252Z,13.32
2018-09-27T19:47:57.860Z,12.85
2018-09-27T19:50:27.442Z,11.07
2018-09-27T19:52:57.750Z,13.07
2018-09-27T19:55:28.412Z,11.65
2018-09-27T19:57:57.896Z,12.50
2018-09-27T20:00:28.570Z,11.02
2018-09-27T20:02:58.199Z,10.95
2018-09-27T20:05:27.932Z,10.07
2018-09-27T20:07:58.785Z,8.45
2018-09-27T20:10:28.575Z,8.13
2018-09-27T20:12:58.221Z,7.97
2018-09-27T20:15:27.932Z,7.47
2018-09-27T20:17:57.610Z,7.53
2018-09-27T20:20:27.325Z,7.10
2018-09-27T20:22:57.198Z,6.93
2018-09-27T20:25:26.981Z,6.95
2018-09-27T20:27:57.444Z,6.87
2018-09-27T20:30:27.539Z,6.53
2018-09-27T20:32:57.190Z,6.22
2018-09-27T20:35:26.170Z,5.87
2018-09-27T20:37:56.815Z,5.62
2018-09-27T20:40:27.577Z,5.78
2018-09-27T20:42:58.041Z,5.30
2018-09-27T20:45:27.776Z,5.72
2018-09-27T20:48:00.104Z,5.03
2018-09-27T20:50:30.522Z,4.93
2018-09-27T20:53:00.357Z,5.45
2018-09-27T20:55:29.719Z,5.30
2018-09-27T20:57:59.162Z,5.00
2018-09-27T21:00:28.729Z,5.30
2018-09-27T21:02:58.638Z,5.15
2018-09-27T21:05:28.065Z,5.03
2018-09-27T21:07:57.496Z,5.28
2018-09-27T21:10:27.620Z,5.05
2018-09-27T21:12:57.397Z,5.12
2018-09-27T21:15:27.036Z,4.85
2018-09-27T21:17:56.966Z,5.03
2018-09-27T21:20:26.090Z,4.50
2018-09-27T21:22:55.933Z,5.43
2018-09-27T21:25:25.724Z,4.87
2018-09-27T21:27:55.341Z,4.90
2018-09-27T21:30:24.827Z,4.90
2018-09-27T21:32:57.334Z,4.32
2018-09-27T21:35:27.013Z,4.70
2018-09-27T21:37:56.457Z,4.62
2018-09-27T21:40:26.715Z,4.30
2018-09-27T21:42:56.443Z,4.87
2018-09-27T21:45:26.235Z,5.05
2018-09-27T21:47:55.801Z,4.78
2018-09-27T21:50:25.115Z,5.43
2018-09-27T21:52:54.592Z,5.10
2018-09-27T21:55:25.013Z,5.20
2018-09-27T21:57:55.416Z,4.80
2018-09-27T22:00:25.158Z,5.32
2018-09-27T22:02:56.132Z,4.97
2018-09-27T22:05:26.328Z,4.75
2018-09-27T22:07:55.627Z,4.30
2018-09-27T22:10:25.188Z,5.07
2018-09-27T22:12:55.473Z,4.53
2018-09-27T22:15:24.791Z,4.55
2018-09-27T22:17:54.561Z,4.53
2018-09-27T22:20:24.187Z,4.35
2018-09-27T22:22:53.768Z,6.65
2018-09-27T22:25:23.656Z,5.12
2018-09-27T22:27:53.367Z,4.60
2018-09-27T22:30:24.133Z,4.70
2018-09-27T22:32:53.743Z,4.80
2018-09-27T22:35:23.152Z,6.10
2018-09-27T22:37:52.549Z,4.75
2018-09-27T22:40:22.025Z,5.30
2018-09-27T22:42:52.231Z,5.07
2018-09-27T22:45:22.727Z,4.60
2018-09-27T22:47:53.133Z,4.43
2018-09-27T22:50:22.749Z,4.20
2018-09-27T22:52:52.084Z,8.07
2018-09-27T22:55:21.679Z,4.78
2018-09-27T22:57:51.257Z,4.53
2018-09-27T23:00:20.881Z,4.18
2018-09-27T23:02:51.119Z,3.92
2018-09-27T23:05:21.128Z,4.45
2018-09-27T23:07:50.659Z,4.60
2018-09-27T23:10:20.404Z,4.55
2018-09-27T23:12:50.412Z,4.70
2018-09-27T23:15:20.130Z,4.30
2018-09-27T23:17:54.178Z,3.78
2018-09-27T23:20:23.763Z,3.97
2018-09-27T23:22:53.275Z,4.03
2018-09-27T23:25:22.891Z,3.70
2018-09-27T23:27:52.397Z,4.28
2018-09-27T23:30:22.285Z,5.05
2018-09-27T23:32:52.969Z,4.85
2018-09-27T23:35:23.684Z,4.53
2018-09-27T23:37:53.178Z,6.18
2018-09-27T23:40:22.620Z,4.90
2018-09-27T23:42:52.378Z,4.18
2018-09-27T23:45:21.782Z,4.57
2018-09-27T23:47:51.124Z,3.95
2018-09-27T23:50:20.688Z,4.47
2018-09-27T23:52:50.359Z,4.30
2018-09-27T23:55:20.937Z,4.62
2018-09-27T23:57:50.632Z,6.00
